Time;durP1;ratioP1;P1;durP2;ratioP2;P2;SDS_P1;SDS_P2;PMS_P1;PMS_P2;Temp;Humidity;BMP_temperature;BMP_pressure;BME280_temperature;BME280_humidity;BME280_pressure;Samples;Min_cycle;Max_cycle;Signal;HPM_P1;HPM_P2
2022/05/10 00:01:01;;;;;;;10.40;4.57;;;13.90;99.90;;;;;;4984304;28;20022;-87
2022/05/10 00:03:37;;;;;;;9.00;3.40;;;13.80;99.90;;;;;;4990015;28;20030;-88
2022/05/10 00:06:04;;;;;;;7.60;3.72;;;13.80;99.90;;;;;;4986934;28;20567;-87
2022/05/10 00:08:30;;;;;;;7.95;3.58;;;13.80;99.90;;;;;;4988565;28;20045;-87
2022/05/10 00:10:56;;;;;;;10.38;4.30;;;13.70;99.90;;;;;;4991829;28;20180;-87
2022/05/10 00:13:24;;;;;;;14.32;4.07;;;13.70;99.90;;;;;;4998858;28;20053;-86
2022/05/10 00:15:50;;;;;;;5.20;3.00;;;13.70;99.90;;;;;;4998059;28;20033;-85
2022/05/10 00:18:17;;;;;;;6.43;3.25;;;13.60;99.90;;;;;;4975033;28;20472;-86
2022/05/10 00:20:44;;;;;;;7.25;3.65;;;13.60;99.90;;;;;;4986018;28;20345;-89
2022/05/10 00:23:10;;;;;;;11.05;4.15;;;13.60;99.90;;;;;;4987773;28;20088;-87
2022/05/10 00:25:39;;;;;;;10.70;3.90;;;13.60;99.90;;;;;;4989756;28;20374;-87
2022/05/10 00:28:05;;;;;;;5.53;3.72;;;13.50;99.90;;;;;;4990116;28;20121;-89
2022/05/10 00:30:31;;;;;;;7.10;3.80;;;13.50;99.90;;;;;;4986595;28;20022;-88
2022/05/10 00:32:57;;;;;;;6.65;3.08;;;13.50;99.90;;;;;;4987499;28;20049;-88
2022/05/10 00:35:26;;;;;;;8.80;3.53;;;13.50;99.90;;;;;;4992789;28;20108;-89
2022/05/10 00:37:55;;;;;;;8.68;2.95;;;13.50;99.90;;;;;;4991299;28;20033;-88
2022/05/10 00:40:25;;;;;;;6.72;3.10;;;13.50;99.90;;;;;;4992170;28;20038;-87
2022/05/10 00:43:16;;;;;;;5.03;2.70;;;13.50;99.90;;;;;;5008833;28;20094;-87
2022/05/10 00:45:44;;;;;;;4.25;2.50;;;13.50;99.90;;;;;;5001581;28;20018;-89
2022/05/10 00:48:26;;;;;;;7.70;2.83;;;13.50;99.90;;;;;;4988701;28;20041;-87
2022/05/10 00:51:03;;;;;;;6.43;2.58;;;13.50;99.90;;;;;;4982675;28;20030;-88
2022/05/10 00:54:00;;;;;;;3.85;2.50;;;13.50;99.90;;;;;;4983823;28;20022;-87
2022/05/10 00:56:39;;;;;;;4.07;2.25;;;13.50;99.90;;;;;;4982366;28;20033;-88
2022/05/10 00:59:18;;;;;;;6.03;2.20;;;13.50;99.90;;;;;;4987709;28;20034;-88
2022/05/10 01:01:52;;;;;;;7.65;2.55;;;13.50;99.90;;;;;;4987335;28;20041;-87
2022/05/10 01:04:36;;;;;;;7.20;2.38;;;13.50;99.90;;;;;;4992925;28;20104;-87
2022/05/10 01:07:22;;;;;;;3.42;2.40;;;13.50;99.90;;;;;;4986841;28;20025;-88
2022/05/10 01:10:34;;;;;;;3.60;2.03;;;13.50;99.90;;;;;;4992595;28;20049;-88
2022/05/10 01:13:06;;;;;;;7.90;2.97;;;13.40;99.90;;;;;;4996720;28;20041;-87
2022/05/10 01:15:33;;;;;;;5.85;2.60;;;13.40;99.90;;;;;;5006457;28;20034;-86
2022/05/10 01:17:59;;;;;;;5.53;2.85;;;13.40;99.90;;;;;;5005197;28;20395;-87
2022/05/10 01:20:54;;;;;;;4.78;2.45;;;13.40;99.90;;;;;;4990181;28;20029;-87
2022/05/10 01:23:41;;;;;;;7.28;2.47;;;13.50;99.90;;;;;;4987124;28;20570;-86
2022/05/10 01:26:36;;;;;;;3.83;2.50;;;13.40;99.90;;;;;;4987318;28;20022;-87
2022/05/10 01:29:10;;;;;;;3.63;2.40;;;13.40;99.90;;;;;;4977980;28;20499;-87
2022/05/10 01:31:44;;;;;;;5.53;2.92;;;13.40;99.90;;;;;;4983680;28;20475;-87
2022/05/10 01:34:16;;;;;;;5.32;2.90;;;13.40;99.90;;;;;;4999457;28;20046;-86
2022/05/10 01:36:48;;;;;;;3.55;2.25;;;13.40;99.90;;;;;;4983256;28;20034;-86
2022/05/10 01:39:40;;;;;;;4.90;1.90;;;13.30;99.90;;;;;;4981352;28;20029;-87
2022/05/10 01:42:26;;;;;;;5.32;2.42;;;13.30;99.90;;;;;;4982425;28;20511;-89
2022/05/10 01:45:05;;;;;;;6.43;2.67;;;13.30;99.90;;;;;;4968735;28;20399;-87
2022/05/10 01:47:30;;;;;;;7.68;1.95;;;13.30;99.90;;;;;;4983419;28;20037;-87
2022/05/10 01:50:24;;;;;;;4.22;2.00;;;13.30;99.90;;;;;;4987461;28;20061;-87
2022/05/10 01:53:14;;;;;;;6.38;2.30;;;13.30;99.90;;;;;;4982972;28;20503;-87
2022/05/10 01:55:49;;;;;;;5.28;1.95;;;13.20;99.90;;;;;;4982452;28;20026;-86
2022/05/10 01:58:16;;;;;;;5.32;2.05;;;13.20;99.90;;;;;;4982499;28;20026;-87
2022/05/10 02:00:55;;;;;;;5.57;2.00;;;13.20;99.90;;;;;;4986483;28;20044;-87
2022/05/10 02:03:43;;;;;;;3.00;2.00;;;13.20;99.90;;;;;;4983238;28;20395;-88
2022/05/10 02:06:26;;;;;;;2.72;1.75;;;13.20;99.90;;;;;;4986335;28;20027;-89
2022/05/10 02:09:13;;;;;;;3.50;1.83;;;13.10;99.90;;;;;;4982833;28;20021;-86
2022/05/10 02:11:43;;;;;;;3.28;2.22;;;13.10;99.90;;;;;;4982525;28;20027;-88
2022/05/10 02:14:08;;;;;;;2.20;1.90;;;13.10;99.90;;;;;;4984833;28;20014;-88
2022/05/10 02:16:50;;;;;;;5.63;2.28;;;13.10;99.90;;;;;;4984013;28;20034;-88
2022/05/10 02:19:27;;;;;;;4.35;1.92;;;13.10;99.90;;;;;;4982263;28;20025;-88
2022/05/10 02:22:06;;;;;;;2.80;1.60;;;13.10;99.90;;;;;;4985308;28;20066;-87
2022/05/10 02:24:44;;;;;;;3.38;1.85;;;13.10;99.90;;;;;;4981884;28;20030;-87
2022/05/10 02:27:22;;;;;;;5.32;2.13;;;13.10;99.90;;;;;;4979859;28;20018;-87
2022/05/10 02:29:52;;;;;;;3.55;1.90;;;13.10;99.90;;;;;;4982084;28;20033;-88
2022/05/10 02:35:17;;;;;;;4.38;2.05;;;13.10;99.90;;;;;;5001878;28;20061;-87
2022/05/10 02:37:43;;;;;;;1.83;1.55;;;13.20;99.90;;;;;;4988724;28;20129;-87
2022/05/10 02:40:09;;;;;;;2.75;1.92;;;13.20;99.90;;;;;;4988427;28;20124;-86
2022/05/10 02:42:35;;;;;;;4.00;2.10;;;13.20;99.90;;;;;;4990053;28;20026;-87
2022/05/10 02:45:03;;;;;;;3.97;1.63;;;13.10;99.90;;;;;;4986695;28;20113;-88
2022/05/10 02:47:31;;;;;;;4.25;1.90;;;13.10;99.90;;;;;;4988094;28;20026;-88
2022/05/10 02:49:56;;;;;;;3.08;1.60;;;13.10;99.90;;;;;;4988867;28;20480;-87
2022/05/10 02:52:22;;;;;;;3.25;1.70;;;13.10;99.90;;;;;;5003684;28;20033;-88
2022/05/10 02:55:02;;;;;;;5.70;1.80;;;13.10;99.90;;;;;;4985814;28;20096;-87
2022/05/10 02:57:29;;;;;;;3.72;2.10;;;13.10;99.90;;;;;;4986393;28;20117;-87
2022/05/10 02:59:59;;;;;;;3.47;1.92;;;13.20;99.90;;;;;;4987469;28;20116;-87
2022/05/10 03:02:31;;;;;;;2.65;1.90;;;13.20;99.90;;;;;;4988704;28;20093;-87
2022/05/10 03:04:58;;;;;;;2.15;1.85;;;13.20;99.90;;;;;;4986262;28;20510;-87
2022/05/10 03:07:25;;;;;;;3.33;2.08;;;13.10;99.90;;;;;;4989033;28;20038;-87
2022/05/10 03:09:51;;;;;;;2.72;1.77;;;13.10;99.90;;;;;;5002161;28;20022;-88
2022/05/10 03:12:18;;;;;;;2.80;2.00;;;13.00;99.90;;;;;;4988524;28;20026;-87
2022/05/10 03:14:44;;;;;;;5.93;2.10;;;13.00;99.90;;;;;;4986126;28;20460;-87
2022/05/10 03:17:10;;;;;;;3.53;1.80;;;13.00;99.90;;;;;;4987626;28;20167;-87
2022/05/10 03:19:42;;;;;;;4.65;2.05;;;13.00;99.90;;;;;;4988153;28;20053;-88
2022/05/10 03:22:10;;;;;;;4.30;1.88;;;13.00;99.90;;;;;;4988511;28;20045;-88
2022/05/10 03:24:36;;;;;;;4.43;2.30;;;13.00;99.90;;;;;;4989706;28;20513;-89
2022/05/10 03:27:05;;;;;;;4.43;1.58;;;13.00;99.90;;;;;;4985941;28;20037;-88
2022/05/10 03:29:31;;;;;;;4.80;2.10;;;12.90;99.90;;;;;;5003915;28;20078;-88
2022/05/10 03:31:57;;;;;;;3.42;1.83;;;12.90;99.90;;;;;;4988885;28;20025;-88
2022/05/10 03:37:07;;;;;;;4.60;1.85;;;12.90;99.90;;;;;;4993776;28;20025;-88
2022/05/10 03:39:33;;;;;;;4.15;2.00;;;12.90;99.90;;;;;;4987833;28;20027;-88
2022/05/10 03:41:59;;;;;;;5.80;1.90;;;12.90;99.90;;;;;;4984920;28;20030;-88
2022/05/10 03:44:24;;;;;;;5.18;1.95;;;12.90;99.90;;;;;;4984285;28;20038;-88
2022/05/10 03:46:50;;;;;;;1.85;1.60;;;12.90;99.90;;;;;;4985126;28;20108;-89
2022/05/10 03:49:16;;;;;;;4.32;2.00;;;12.90;99.90;;;;;;4984760;28;20030;-89
2022/05/10 03:51:42;;;;;;;3.05;1.70;;;12.90;99.90;;;;;;4984448;28;20049;-89
2022/05/10 03:54:08;;;;;;;3.35;1.98;;;12.90;99.90;;;;;;4984567;28;20472;-87
2022/05/10 03:56:34;;;;;;;2.08;1.58;;;12.90;99.90;;;;;;4984831;28;20029;-88
2022/05/10 03:59:00;;;;;;;4.72;1.77;;;12.90;99.90;;;;;;4990573;28;20202;-87
2022/05/10 04:01:25;;;;;;;5.53;1.80;;;12.90;99.90;;;;;;4983677;28;20392;-88
2022/05/10 04:03:51;;;;;;;5.35;1.90;;;12.90;99.90;;;;;;4984546;28;20038;-89
2022/05/10 04:06:17;;;;;;;5.63;1.42;;;12.90;99.90;;;;;;4984611;28;20366;-88
2022/05/10 04:08:43;;;;;;;3.17;1.42;;;12.90;99.90;;;;;;4984481;28;20675;-88
2022/05/10 04:11:10;;;;;;;3.80;1.50;;;12.90;99.90;;;;;;4984210;28;20022;-87
2022/05/10 04:13:40;;;;;;;2.63;1.70;;;12.90;99.90;;;;;;4983985;28;20023;-87
2022/05/10 04:16:07;;;;;;;2.10;1.33;;;12.90;99.90;;;;;;4981568;28;20023;-87
2022/05/10 04:18:33;;;;;;;3.78;1.27;;;12.90;99.90;;;;;;4984443;28;20031;-87
2022/05/10 04:20:59;;;;;;;1.35;1.10;;;12.90;99.90;;;;;;4984315;28;20022;-87
2022/05/10 04:23:25;;;;;;;1.60;0.80;;;12.90;99.90;;;;;;4983974;28;20137;-87
2022/05/10 04:25:51;;;;;;;1.52;0.95;;;12.90;99.90;;;;;;4991016;28;20029;-88
2022/05/10 04:28:18;;;;;;;4.32;1.30;;;13.00;99.90;;;;;;4981591;28;20361;-88
2022/05/10 04:30:44;;;;;;;3.38;0.90;;;13.00;99.90;;;;;;4983386;28;20041;-87
2022/05/10 04:33:10;;;;;;;2.50;1.02;;;12.90;99.90;;;;;;4984376;28;20033;-87
2022/05/10 04:35:35;;;;;;;2.72;1.30;;;12.90;99.90;;;;;;4987185;28;20030;-86
2022/05/10 04:38:07;;;;;;;4.07;1.40;;;13.00;99.90;;;;;;4984408;28;20488;-89
2022/05/10 04:43:18;;;;;;;8.00;1.75;;;12.90;99.90;;;;;;4999963;28;20099;-87
2022/05/10 04:45:44;;;;;;;5.07;1.02;;;12.90;99.90;;;;;;4983874;28;20018;-86
2022/05/10 04:48:10;;;;;;;7.78;1.27;;;12.90;99.90;;;;;;4986085;28;20025;-88
2022/05/10 04:50:36;;;;;;;6.15;1.33;;;12.90;99.90;;;;;;4986838;28;20030;-88
2022/05/10 04:53:02;;;;;;;2.15;1.00;;;12.80;99.90;;;;;;4983995;28;20574;-86
2022/05/10 04:55:28;;;;;;;2.22;1.08;;;12.80;99.90;;;;;;5002404;28;20030;-88
2022/05/10 04:57:53;;;;;;;5.18;1.17;;;12.80;99.90;;;;;;4986803;28;20461;-88
2022/05/10 05:00:20;;;;;;;3.35;1.10;;;12.70;99.90;;;;;;4984442;28;20049;-88
2022/05/10 05:02:46;;;;;;;2.50;0.70;;;12.70;99.90;;;;;;4986193;28;20487;-88
2022/05/10 05:05:13;;;;;;;4.40;1.33;;;12.70;99.90;;;;;;4986536;28;20046;-88
2022/05/10 05:07:39;;;;;;;5.20;0.95;;;12.70;99.90;;;;;;4985289;28;20057;-88
2022/05/10 05:10:06;;;;;;;2.92;0.88;;;12.70;99.90;;;;;;4987268;28;20026;-88
2022/05/10 05:12:32;;;;;;;3.90;1.00;;;12.70;99.90;;;;;;4983393;28;20032;-88
2022/05/10 05:14:59;;;;;;;5.13;1.00;;;12.60;99.90;;;;;;4989277;28;20136;-88
2022/05/10 05:17:25;;;;;;;10.55;1.27;;;12.60;99.90;;;;;;4987528;28;20026;-88
2022/05/10 05:19:51;;;;;;;9.50;2.45;;;12.60;99.90;;;;;;4983512;28;20085;-88
2022/05/10 05:22:16;;;;;;;7.00;1.15;;;12.60;99.90;;;;;;5003254;28;20415;-88
2022/05/10 05:24:42;;;;;;;7.15;1.10;;;12.60;99.90;;;;;;4986085;28;20026;-88
2022/05/10 05:27:08;;;;;;;3.38;1.20;;;12.60;99.90;;;;;;4983079;28;20508;-88
2022/05/10 05:29:34;;;;;;;5.95;1.20;;;12.60;99.90;;;;;;4985866;28;20014;-87
2022/05/10 05:32:03;;;;;;;8.00;1.20;;;12.60;99.90;;;;;;4985805;28;20026;-88
2022/05/10 05:34:29;;;;;;;4.35;1.15;;;12.50;99.90;;;;;;4983838;28;20058;-88
2022/05/10 05:37:40;;;;;;;5.00;1.52;;;12.50;99.90;;;;;;4984603;28;20022;-87
2022/05/10 05:39:41;;;;;;;2.53;0.82;;;12.50;99.90;;;;;;4991791;28;20029;-88
2022/05/10 05:42:06;;;;;;;6.00;1.58;;;12.50;99.90;;;;;;4985994;28;20041;-88
2022/05/10 05:44:33;;;;;;;3.13;0.88;;;12.50;99.90;;;;;;4987975;28;20021;-88
2022/05/10 05:46:58;;;;;;;4.63;1.10;;;12.50;99.90;;;;;;4985722;28;20634;-88
2022/05/10 05:49:27;;;;;;;7.65;1.20;;;12.50;99.90;;;;;;4987343;28;20045;-88
2022/05/10 05:51:58;;;;;;;3.92;1.42;;;12.50;99.90;;;;;;4990062;28;20041;-88
2022/05/10 05:54:24;;;;;;;7.38;1.73;;;12.40;99.90;;;;;;4983776;28;20022;-88
2022/05/10 05:56:50;;;;;;;3.50;1.30;;;12.40;99.90;;;;;;4983615;28;20030;-88
2022/05/10 05:59:16;;;;;;;12.60;1.92;;;12.40;99.90;;;;;;4980925;28;20033;-87
2022/05/10 06:01:41;;;;;;;10.93;2.40;;;12.30;99.90;;;;;;4980888;28;20496;-88
2022/05/10 06:04:07;;;;;;;10.60;1.90;;;12.30;99.90;;;;;;4985669;28;20026;-88
2022/05/10 06:06:32;;;;;;;7.80;1.58;;;12.30;99.90;;;;;;4986577;28;20041;-89
2022/05/10 06:08:58;;;;;;;7.25;1.38;;;12.30;99.90;;;;;;4986079;28;20085;-88
2022/05/10 06:11:24;;;;;;;4.20;1.60;;;12.20;99.90;;;;;;4996522;28;20034;-88
2022/05/10 06:13:49;;;;;;;9.73;2.13;;;12.20;99.90;;;;;;4995215;28;20034;-89
2022/05/10 06:16:15;;;;;;;8.82;1.77;;;12.20;99.90;;;;;;4990214;28;20029;-88
2022/05/10 06:18:42;;;;;;;5.43;1.70;;;12.10;99.90;;;;;;4986780;28;20109;-87
2022/05/10 06:21:08;;;;;;;9.23;2.00;;;12.10;99.90;;;;;;4984627;28;20049;-88
2022/05/10 06:23:34;;;;;;;8.73;1.40;;;12.10;99.90;;;;;;4993377;28;20034;-88
2022/05/10 06:25:59;;;;;;;11.27;1.90;;;12.10;99.90;;;;;;4990888;28;20014;-88
2022/05/10 06:28:25;;;;;;;11.32;1.90;;;12.10;99.90;;;;;;4988262;28;20026;-88
2022/05/10 06:30:51;;;;;;;10.85;3.03;;;12.10;99.90;;;;;;4991182;28;20048;-87
2022/05/10 06:33:16;;;;;;;6.47;1.50;;;12.10;99.90;;;;;;5012816;28;20480;-87
2022/05/10 06:35:44;;;;;;;9.98;1.75;;;12.10;99.90;;;;;;4981391;28;20369;-87
2022/05/10 06:38:27;;;;;;;5.80;2.00;;;12.10;99.90;;;;;;4978117;28;20085;-87
2022/05/10 06:40:53;;;;;;;12.50;1.70;;;12.00;99.90;;;;;;4988659;28;20376;-87
2022/05/10 06:43:20;;;;;;;10.10;1.70;;;12.00;99.90;;;;;;4977350;28;20056;-88
2022/05/10 06:45:46;;;;;;;8.68;2.15;;;12.10;99.90;;;;;;4979038;28;20018;-88
2022/05/10 06:48:12;;;;;;;11.38;1.65;;;12.10;99.90;;;;;;4967964;28;20147;-88
2022/05/10 06:50:38;;;;;;;8.55;2.03;;;12.10;99.90;;;;;;4961864;28;20070;-88
2022/05/10 06:53:04;;;;;;;15.27;2.88;;;12.20;99.90;;;;;;4961854;28;20031;-88
2022/05/10 06:55:33;;;;;;;6.30;1.70;;;12.20;99.90;;;;;;4962384;28;20042;-89
2022/05/10 06:58:01;;;;;;;12.27;1.67;;;12.30;99.90;;;;;;4976752;28;20026;-89
2022/05/10 07:00:27;;;;;;;8.65;1.75;;;12.30;99.90;;;;;;4981871;28;20023;-87
2022/05/10 07:02:53;;;;;;;8.45;1.75;;;12.30;99.90;;;;;;4980180;28;20037;-90
2022/05/10 07:05:20;;;;;;;7.80;1.58;;;12.40;99.90;;;;;;4978603;28;20027;-89
2022/05/10 07:07:46;;;;;;;8.80;1.58;;;12.40;99.90;;;;;;4968268;28;20026;-88
2022/05/10 07:10:13;;;;;;;12.77;3.25;;;12.50;99.90;;;;;;4981614;28;20499;-88
2022/05/10 07:12:41;;;;;;;8.27;1.27;;;12.50;99.90;;;;;;4981509;28;20030;-86
2022/05/10 07:15:12;;;;;;;14.80;1.92;;;12.50;99.90;;;;;;4981424;28;20022;-86
2022/05/10 07:17:38;;;;;;;13.55;1.83;;;12.60;99.90;;;;;;4980439;28;20492;-87
2022/05/10 07:20:06;;;;;;;12.73;1.70;;;12.60;99.90;;;;;;4977422;28;20034;-88
2022/05/10 07:22:32;;;;;;;21.92;3.92;;;12.70;99.90;;;;;;4977686;28;20096;-86
2022/05/10 07:24:58;;;;;;;12.20;1.85;;;12.80;99.90;;;;;;4976793;28;20034;-90
2022/05/10 07:27:25;;;;;;;10.20;1.70;;;12.80;99.90;;;;;;4974440;28;20053;-89
2022/05/10 07:29:51;;;;;;;14.38;1.95;;;12.80;99.90;;;;;;4978042;28;20389;-88
2022/05/10 07:32:19;;;;;;;13.20;1.77;;;12.80;99.90;;;;;;4978011;28;20173;-87
2022/05/10 07:34:45;;;;;;;10.32;1.67;;;12.80;99.90;;;;;;4988076;28;20524;-88
2022/05/10 07:37:11;;;;;;;5.18;1.35;;;12.80;99.90;;;;;;4993784;28;20030;-87
2022/05/10 07:39:36;;;;;;;9.68;1.90;;;12.80;99.90;;;;;;4993861;28;20031;-87
2022/05/10 07:42:04;;;;;;;11.57;2.42;;;12.80;99.90;;;;;;4997760;28;20034;-88
2022/05/10 07:44:32;;;;;;;10.50;1.38;;;12.90;99.90;;;;;;4995309;28;20018;-88
2022/05/10 07:46:58;;;;;;;10.50;1.90;;;12.90;99.90;;;;;;4993808;28;20034;-87
2022/05/10 07:49:24;;;;;;;10.43;1.70;;;12.90;99.90;;;;;;4995442;28;20032;-90
2022/05/10 07:51:50;;;;;;;9.23;2.13;;;13.00;99.90;;;;;;4986906;28;20129;-88
2022/05/10 07:54:19;;;;;;;7.68;1.73;;;13.10;99.90;;;;;;4996993;28;20109;-89
2022/05/10 07:56:45;;;;;;;9.75;1.85;;;13.20;99.90;;;;;;4986296;28;20025;-92
2022/05/10 07:59:10;;;;;;;10.55;1.40;;;13.30;99.90;;;;;;4995779;28;20033;-91
2022/05/10 08:01:36;;;;;;;8.38;2.03;;;13.40;99.90;;;;;;4997484;28;20030;-89
2022/05/10 08:04:03;;;;;;;9.98;1.60;;;13.40;99.90;;;;;;4998653;28;20053;-90
2022/05/10 08:06:29;;;;;;;10.30;1.58;;;13.50;99.90;;;;;;4988915;28;20022;-93
2022/05/10 08:08:55;;;;;;;10.98;1.77;;;13.50;99.90;;;;;;4979230;28;20037;-91
2022/05/10 08:11:22;;;;;;;11.15;1.60;;;13.60;99.90;;;;;;4979190;28;20030;-91
2022/05/10 08:13:48;;;;;;;8.20;1.65;;;13.60;99.90;;;;;;4978921;28;20121;-92
2022/05/10 08:16:14;;;;;;;6.45;1.35;;;13.80;99.90;;;;;;4978506;28;20046;-91
2022/05/10 08:18:41;;;;;;;10.23;1.40;;;13.80;99.90;;;;;;4979004;28;20373;-92
2022/05/10 08:21:08;;;;;;;13.52;2.33;;;13.90;99.80;;;;;;4978782;28;20026;-90
2022/05/10 08:23:36;;;;;;;13.23;1.50;;;14.00;98.70;;;;;;4978676;28;20034;-92
2022/05/10 08:26:03;;;;;;;12.52;2.05;;;14.10;98.40;;;;;;4990342;28;20025;-93
2022/05/10 08:28:31;;;;;;;11.20;1.92;;;14.20;98.40;;;;;;4998177;28;20116;-90
2022/05/10 08:30:58;;;;;;;17.25;1.70;;;14.30;98.30;;;;;;4998620;28;20061;-91
2022/05/10 08:33:37;;;;;;;11.95;1.58;;;14.40;97.50;;;;;;4998293;28;20034;-89
2022/05/10 08:36:08;;;;;;;18.83;2.05;;;14.40;96.40;;;;;;4998570;28;20041;-89
2022/05/10 08:38:36;;;;;;;;;;;14.50;96.00;;;;;;5000192;28;20072;-90
2022/05/10 08:41:11;;;;;;;15.73;1.75;;;14.60;96.10;;;;;;4999196;28;20303;-90
2022/05/10 08:43:39;;;;;;;17.38;2.13;;;14.80;96.20;;;;;;4998526;28;20042;-92
2022/05/10 08:46:08;;;;;;;10.60;1.40;;;14.90;95.60;;;;;;4998733;28;20018;-90
2022/05/10 08:48:34;;;;;;;13.20;1.75;;;15.10;95.10;;;;;;4998484;28;20113;-91
2022/05/10 08:51:01;;;;;;;9.85;1.52;;;15.30;94.70;;;;;;4998007;28;20470;-91
2022/05/10 08:53:27;;;;;;;9.52;1.88;;;15.20;94.00;;;;;;4998087;28;20030;-92
2022/05/10 08:56:22;;;;;;;13.52;2.53;;;15.10;93.70;;;;;;4998541;28;20538;-90
2022/05/10 08:59:22;;;;;;;12.02;1.98;;;15.10;94.10;;;;;;4998325;28;20030;-91
2022/05/10 09:01:58;;;;;;;15.20;2.53;;;15.20;94.00;;;;;;4997977;28;20026;-91
2022/05/10 09:04:51;;;;;;;8.85;1.60;;;15.30;94.00;;;;;;4998197;28;20395;-90
2022/05/10 09:07:43;;;;;;;8.52;1.77;;;15.50;93.30;;;;;;4998753;28;20041;-91
2022/05/10 09:10:20;;;;;;;8.13;1.05;;;15.60;93.20;;;;;;4999860;28;20113;-91
2022/05/10 09:12:52;;;;;;;10.65;1.88;;;15.80;93.00;;;;;;4998832;28;20026;-90
2022/05/10 09:15:18;;;;;;;15.52;1.30;;;15.90;92.80;;;;;;4998505;28;20080;-89
2022/05/10 09:17:44;;;;;;;15.85;2.78;;;15.80;91.70;;;;;;4999925;28;20105;-90
2022/05/10 09:20:11;;;;;;;10.75;1.65;;;15.70;90.80;;;;;;4999971;28;20026;-91
2022/05/10 09:23:09;;;;;;;5.95;1.63;;;15.60;90.90;;;;;;4985710;28;20038;-91
2022/05/10 09:25:41;;;;;;;10.48;1.98;;;15.80;90.90;;;;;;4985955;28;20022;-91
2022/05/10 09:28:26;;;;;;;20.42;2.20;;;15.80;90.50;;;;;;4998293;28;20022;-91
2022/05/10 09:36:29;;;;;;;9.98;1.60;;;16.10;90.00;;;;;;4995678;28;20097;-92
2022/05/10 09:39:19;;;;;;;10.10;1.85;;;16.30;90.10;;;;;;4977558;28;20033;-91
2022/05/10 09:41:51;;;;;;;12.18;1.88;;;16.50;89.10;;;;;;4977201;28;20030;-90
2022/05/10 09:44:22;;;;;;;6.65;1.23;;;16.70;87.20;;;;;;4981303;28;20038;-89
2022/05/10 09:46:48;;;;;;;;;;;16.80;85.70;;;;;;4982812;28;20030;-92
2022/05/10 09:49:31;;;;;;;8.02;1.60;;;16.90;85.10;;;;;;4978856;28;19916;-92
2022/05/10 09:51:58;;;;;;;9.52;1.33;;;17.10;84.70;;;;;;4978174;28;20117;-91
2022/05/10 09:54:35;;;;;;;13.15;2.20;;;17.30;83.90;;;;;;4978355;28;20022;-93
2022/05/10 09:57:01;;;;;;;9.85;2.10;;;17.40;82.80;;;;;;4978698;28;20074;-91
2022/05/10 09:59:38;;;;;;;12.30;2.10;;;17.40;81.90;;;;;;4980402;28;20027;-91
2022/05/10 10:02:05;;;;;;;13.38;2.30;;;17.50;82.20;;;;;;4977877;28;20036;-90
2022/05/10 10:04:40;;;;;;;8.45;1.60;;;17.60;82.60;;;;;;4977540;28;20030;-93
2022/05/10 10:07:21;;;;;;;11.15;2.05;;;17.80;81.90;;;;;;4978172;28;20114;-91
2022/05/10 10:09:55;;;;;;;10.85;2.13;;;17.80;80.80;;;;;;4978046;28;20062;-92
2022/05/10 10:12:39;;;;;;;10.73;1.92;;;17.80;79.80;;;;;;4978155;28;20036;-92
2022/05/10 10:15:25;;;;;;;10.68;1.75;;;17.90;80.60;;;;;;4978196;28;20129;-91
2022/05/10 10:18:04;;;;;;;11.52;1.88;;;17.90;79.50;;;;;;4962462;28;20125;-90
2022/05/10 10:20:48;;;;;;;7.40;1.20;;;17.60;80.10;;;;;;4977726;28;20033;-91
2022/05/10 10:23:37;;;;;;;5.03;1.63;;;17.50;80.40;;;;;;4977528;28;20038;-92
2022/05/10 10:26:16;;;;;;;5.57;1.73;;;17.50;80.90;;;;;;4977983;28;20054;-91
2022/05/10 10:28:50;;;;;;;7.03;1.10;;;17.50;81.60;;;;;;4973275;28;20031;-91
2022/05/10 10:31:36;;;;;;;7.25;1.10;;;17.50;81.60;;;;;;4972805;28;20027;-90
2022/05/10 10:34:25;;;;;;;7.07;1.60;;;17.30;81.30;;;;;;4979000;28;20046;-91
2022/05/10 10:37:07;;;;;;;7.60;1.45;;;17.30;82.60;;;;;;4992923;28;20030;-91
2022/05/10 10:39:42;;;;;;;7.50;1.25;;;17.30;83.40;;;;;;4984999;28;20049;-91
2022/05/10 10:42:28;;;;;;;8.75;1.90;;;17.40;83.80;;;;;;4985194;28;20064;-92
2022/05/10 10:44:57;;;;;;;8.00;1.40;;;17.40;82.80;;;;;;4984497;28;20046;-93
2022/05/10 10:47:38;;;;;;;9.38;1.30;;;17.40;81.90;;;;;;4987383;28;20121;-91
2022/05/10 10:50:25;;;;;;;5.85;1.20;;;17.60;81.00;;;;;;4982011;28;20045;-91
2022/05/10 10:52:54;;;;;;;3.65;1.10;;;17.60;80.10;;;;;;4981755;28;20034;-94
2022/05/10 10:55:21;;;;;;;7.50;1.33;;;17.40;79.00;;;;;;4989810;28;20019;-94
2022/05/10 10:58:43;;;;;;;6.75;1.10;;;17.30;79.50;;;;;;4992218;28;20033;-91
2022/05/10 11:01:17;;;;;;;6.50;1.27;;;17.50;80.70;;;;;;4969993;28;20059;-91
2022/05/10 11:04:09;;;;;;;9.45;1.20;;;17.70;81.20;;;;;;4959749;28;20370;-93
2022/05/10 11:06:51;;;;;;;6.05;1.35;;;17.90;81.30;;;;;;4958228;28;20035;-92
2022/05/10 11:09:36;;;;;;;8.88;1.40;;;18.20;81.30;;;;;;4976982;28;20114;-94
2022/05/10 11:12:23;;;;;;;7.03;1.48;;;18.40;80.60;;;;;;4961122;28;20031;-95
2022/05/10 11:15:21;;;;;;;9.23;1.50;;;18.40;80.50;;;;;;4961031;28;20043;-91
2022/05/10 11:18:22;;;;;;;6.40;1.05;;;18.30;80.00;;;;;;4961254;28;20070;-91
2022/05/10 11:21:13;;;;;;;4.05;1.00;;;18.30;79.80;;;;;;4958832;28;20417;-92
2022/05/10 11:24:00;;;;;;;6.60;0.95;;;18.20;79.70;;;;;;4965962;28;20049;-92
2022/05/10 11:26:53;;;;;;;7.65;1.13;;;18.20;77.10;;;;;;4968957;28;20027;-93
2022/05/10 11:29:33;;;;;;;7.07;1.60;;;18.30;78.60;;;;;;4961068;28;20588;-91
2022/05/10 11:32:05;;;;;;;4.57;0.95;;;18.20;78.60;;;;;;4959608;28;20112;-93
2022/05/10 11:34:48;;;;;;;3.70;0.95;;;18.30;77.80;;;;;;4959330;28;20074;-91
2022/05/10 11:37:21;;;;;;;7.93;1.33;;;18.30;77.30;;;;;;4970752;28;20064;-91
2022/05/10 11:40:10;;;;;;;11.85;1.35;;;18.30;77.70;;;;;;4995851;28;20030;-92
2022/05/10 11:43:10;;;;;;;8.05;1.45;;;18.40;76.50;;;;;;4995894;28;20046;-92
2022/05/10 11:45:54;;;;;;;4.03;0.90;;;18.70;75.50;;;;;;4996372;28;20022;-91
2022/05/10 11:48:31;;;;;;;8.82;2.13;;;18.90;74.30;;;;;;4996305;28;20109;-92
2022/05/10 11:51:42;;;;;;;3.67;0.90;;;19.20;74.50;;;;;;4996122;28;20023;-92
2022/05/10 11:54:14;;;;;;;3.17;1.00;;;19.50;71.80;;;;;;4996178;28;20054;-91
2022/05/10 11:56:41;;;;;;;5.43;1.02;;;19.50;70.90;;;;;;4996277;28;20030;-92
2022/05/10 11:59:24;;;;;;;5.35;1.00;;;19.60;70.60;;;;;;4996088;28;20498;-92
2022/05/10 12:01:56;;;;;;;5.72;0.82;;;19.60;69.40;;;;;;4996162;28;20030;-92
2022/05/10 12:04:43;;;;;;;5.93;1.30;;;19.60;69.50;;;;;;4994866;28;20040;-93
2022/05/10 12:07:22;;;;;;;4.95;0.90;;;19.80;70.40;;;;;;4995922;28;20022;-92
2022/05/10 12:09:57;;;;;;;6.65;1.50;;;20.10;69.90;;;;;;4996812;28;20236;-93
2022/05/10 12:12:32;;;;;;;8.77;1.40;;;20.30;68.30;;;;;;4995523;28;20022;-92
2022/05/10 12:21:19;;;;;;;3.80;0.85;;;21.00;64.40;;;;;;4990661;28;20064;-92
2022/05/10 12:24:33;;;;;;;4.85;1.30;;;21.10;62.70;;;;;;4992073;28;20042;-92
2022/05/10 12:27:00;;;;;;;3.00;0.68;;;21.00;63.20;;;;;;4974946;28;20503;-92
2022/05/10 12:29:37;;;;;;;4.72;1.13;;;20.90;62.90;;;;;;4995693;28;20029;-90
2022/05/10 12:32:44;;;;;;;7.85;1.27;;;20.70;62.50;;;;;;4996446;28;20030;-93
2022/05/10 12:35:44;;;;;;;8.40;1.25;;;20.60;61.80;;;;;;4996453;28;20081;-92
2022/05/10 12:38:33;;;;;;;9.87;1.33;;;20.60;61.80;;;;;;4994955;28;20034;-94
2022/05/10 12:41:23;;;;;;;5.20;1.10;;;20.60;61.80;;;;;;4995405;28;20034;-93
2022/05/10 12:44:13;;;;;;;7.45;1.00;;;20.80;62.10;;;;;;4986398;28;20030;-91
2022/05/10 12:47:01;;;;;;;5.57;0.80;;;20.90;61.30;;;;;;4991105;28;20026;-93
2022/05/10 12:49:48;;;;;;;4.18;1.17;;;21.20;61.00;;;;;;4976286;28;20122;-92
2022/05/10 12:52:39;;;;;;;5.50;1.70;;;21.30;59.20;;;;;;4975155;28;20022;-92
2022/05/10 12:55:16;;;;;;;8.10;1.02;;;21.40;57.90;;;;;;4976315;28;20027;-91
2022/05/10 12:58:11;;;;;;;3.63;0.82;;;21.40;57.60;;;;;;4975137;28;20125;-91
2022/05/10 13:00:44;;;;;;;3.65;0.98;;;21.30;57.40;;;;;;4975227;28;20058;-93
2022/05/10 13:03:20;;;;;;;2.20;0.80;;;21.10;57.40;;;;;;4975017;28;20058;-92
2022/05/10 13:05:52;;;;;;;7.07;1.30;;;21.20;57.80;;;;;;4975733;28;20033;-93
2022/05/10 13:08:54;;;;;;;7.63;1.40;;;21.20;57.70;;;;;;4976572;28;20027;-91
2022/05/10 13:11:22;;;;;;;4.50;1.10;;;21.20;57.40;;;;;;4980125;28;20042;-91
2022/05/10 13:13:52;;;;;;;3.05;0.73;;;21.00;56.80;;;;;;4979996;28;20027;-91
2022/05/10 13:16:20;;;;;;;4.53;1.23;;;20.90;57.70;;;;;;4977596;28;20085;-92
2022/05/10 13:18:47;;;;;;;6.80;1.00;;;20.80;57.90;;;;;;4964092;28;20031;-90
2022/05/10 13:21:25;;;;;;;7.40;1.20;;;20.50;58.30;;;;;;4975567;28;20031;-90
2022/05/10 13:23:53;;;;;;;5.28;1.08;;;20.30;58.80;;;;;;4974509;28;20042;-91
2022/05/10 13:26:19;;;;;;;5.53;1.02;;;20.10;58.80;;;;;;4975052;28;20322;-91
2022/05/10 13:28:58;;;;;;;7.38;1.30;;;20.10;59.40;;;;;;4974513;28;20477;-92
2022/05/10 13:31:32;;;;;;;5.60;1.10;;;20.30;60.00;;;;;;4974773;28;20481;-91
2022/05/10 13:34:13;;;;;;;4.28;0.88;;;20.70;59.60;;;;;;4978972;28;20507;-91
2022/05/10 13:36:43;;;;;;;6.25;1.25;;;20.60;58.70;;;;;;4983091;28;20120;-91